sensor_id;sensor_type;location;lat;lon;timestamp;temperature;humidity
25918;DHT22;13899;51.174;4.456;2023-08-21T00:00:53;23.10;99.90
25918;DHT22;13899;51.174;4.456;2023-08-21T00:03:19;23.10;99.90
25918;DHT22;13899;51.174;4.456;2023-08-21T00:05:44;23.10;99.90
25918;DHT22;13899;51.174;4.456;2023-08-21T00:08:10;23.20;99.90
25918;DHT22;13899;51.174;4.456;2023-08-21T00:10:39;23.30;99.90
25918;DHT22;13899;51.174;4.456;2023-08-21T00:13:06;23.20;99.90
25918;DHT22;13899;51.174;4.456;2023-08-21T00:15:32;23.10;99.90
25918;DHT22;13899;51.174;4.456;2023-08-21T00:17:57;22.90;99.90
25918;DHT22;13899;51.174;4.456;2023-08-21T00:20:23;22.80;99.90
25918;DHT22;13899;51.174;4.456;2023-08-21T00:22:49;22.60;99.90
25918;DHT22;13899;51.174;4.456;2023-08-21T00:25:14;22.70;99.90
25918;DHT22;13899;51.174;4.456;2023-08-21T00:27:40;22.60;99.90
25918;DHT22;13899;51.174;4.456;2023-08-21T00:30:06;22.60;99.90
25918;DHT22;13899;51.174;4.456;2023-08-21T00:32:32;22.30;99.90
25918;DHT22;13899;51.174;4.456;2023-08-21T00:34:58;22.30;99.90
25918;DHT22;13899;51.174;4.456;2023-08-21T00:37:23;22.50;99.90
25918;DHT22;13899;51.174;4.456;2023-08-21T00:39:49;22.50;99.90
25918;DHT22;13899;51.174;4.456;2023-08-21T00:42:15;22.60;99.90
25918;DHT22;13899;51.174;4.456;2023-08-21T00:44:40;22.80;99.90
25918;DHT22;13899;51.174;4.456;2023-08-21T00:47:06;22.80;99.90
25918;DHT22;13899;51.174;4.456;2023-08-21T00:49:31;23.00;99.90
25918;DHT22;13899;51.174;4.456;2023-08-21T00:51:58;23.20;99.90
25918;DHT22;13899;51.174;4.456;2023-08-21T00:54:24;23.20;99.90
25918;DHT22;13899;51.174;4.456;2023-08-21T00:56:50;23.10;99.90
25918;DHT22;13899;51.174;4.456;2023-08-21T00:59:18;23.10;99.90
25918;DHT22;13899;51.174;4.456;2023-08-21T01:01:45;23.20;99.90
25918;DHT22;13899;51.174;4.456;2023-08-21T01:04:11;22.90;99.90
25918;DHT22;13899;51.174;4.456;2023-08-21T01:06:37;23.10;99.90
25918;DHT22;13899;51.174;4.456;2023-08-21T01:09:16;22.90;99.90
25918;DHT22;13899;51.174;4.456;2023-08-21T01:11:50;23.10;99.90
25918;DHT22;13899;51.174;4.456;2023-08-21T01:14:28;23.20;99.90
25918;DHT22;13899;51.174;4.456;2023-08-21T01:16:59;23.20;99.90
25918;DHT22;13899;51.174;4.456;2023-08-21T01:19:35;22.90;99.90
25918;DHT22;13899;51.174;4.456;2023-08-21T01:22:01;22.80;99.90
25918;DHT22;13899;51.174;4.456;2023-08-21T01:24:27;22.90;99.90
25918;DHT22;13899;51.174;4.456;2023-08-21T01:26:52;22.70;99.90
25918;DHT22;13899;51.174;4.456;2023-08-21T01:29:18;22.80;99.90
25918;DHT22;13899;51.174;4.456;2023-08-21T01:31:50;22.70;99.90
25918;DHT22;13899;51.174;4.456;2023-08-21T01:34:18;22.80;99.90
25918;DHT22;13899;51.174;4.456;2023-08-21T01:36:44;22.80;99.90
25918;DHT22;13899;51.174;4.456;2023-08-21T01:39:10;22.80;99.90
25918;DHT22;13899;51.174;4.456;2023-08-21T01:41:36;22.90;99.90
25918;DHT22;13899;51.174;4.456;2023-08-21T01:44:02;22.90;99.90
25918;DHT22;13899;51.174;4.456;2023-08-21T01:46:27;22.70;99.90
25918;DHT22;13899;51.174;4.456;2023-08-21T01:48:53;22.60;99.90
25918;DHT22;13899;51.174;4.456;2023-08-21T01:51:19;22.50;99.90
25918;DHT22;13899;51.174;4.456;2023-08-21T01:53:44;22.30;99.90
25918;DHT22;13899;51.174;4.456;2023-08-21T01:56:10;22.20;99.90
25918;DHT22;13899;51.174;4.456;2023-08-21T01:58:35;22.10;99.90
25918;DHT22;13899;51.174;4.456;2023-08-21T02:01:01;22.40;99.90
25918;DHT22;13899;51.174;4.456;2023-08-21T02:03:27;22.30;99.90
25918;DHT22;13899;51.174;4.456;2023-08-21T02:05:55;22.50;99.90
25918;DHT22;13899;51.174;4.456;2023-08-21T02:08:25;22.40;99.90
25918;DHT22;13899;51.174;4.456;2023-08-21T02:10:51;22.20;99.90
25918;DHT22;13899;51.174;4.456;2023-08-21T02:13:18;22.30;99.90
25918;DHT22;13899;51.174;4.456;2023-08-21T02:15:44;22.20;99.90
25918;DHT22;13899;51.174;4.456;2023-08-21T02:18:10;22.30;99.90
25918;DHT22;13899;51.174;4.456;2023-08-21T02:20:35;22.50;99.90
25918;DHT22;13899;51.174;4.456;2023-08-21T02:23:01;22.50;99.90
25918;DHT22;13899;51.174;4.456;2023-08-21T02:25:26;22.60;99.90
25918;DHT22;13899;51.174;4.456;2023-08-21T02:27:52;22.60;99.90
25918;DHT22;13899;51.174;4.456;2023-08-21T02:30:17;22.60;99.90
25918;DHT22;13899;51.174;4.456;2023-08-21T02:32:43;22.60;99.90
25918;DHT22;13899;51.174;4.456;2023-08-21T02:35:09;22.60;99.90
25918;DHT22;13899;51.174;4.456;2023-08-21T02:37:36;22.70;99.90
25918;DHT22;13899;51.174;4.456;2023-08-21T02:40:05;22.50;99.90
25918;DHT22;13899;51.174;4.456;2023-08-21T02:42:33;22.30;99.90
25918;DHT22;13899;51.174;4.456;2023-08-21T02:44:59;22.40;99.90
25918;DHT22;13899;51.174;4.456;2023-08-21T02:47:24;22.60;99.90
25918;DHT22;13899;51.174;4.456;2023-08-21T02:49:50;22.60;99.90
25918;DHT22;13899;51.174;4.456;2023-08-21T02:52:17;22.60;99.90
25918;DHT22;13899;51.174;4.456;2023-08-21T02:54:43;22.70;99.90
25918;DHT22;13899;51.174;4.456;2023-08-21T02:57:08;22.60;99.90
25918;DHT22;13899;51.174;4.456;2023-08-21T02:59:34;22.70;99.90
25918;DHT22;13899;51.174;4.456;2023-08-21T03:02:00;22.40;99.90
25918;DHT22;13899;51.174;4.456;2023-08-21T03:04:25;22.50;99.90
25918;DHT22;13899;51.174;4.456;2023-08-21T03:06:51;22.50;99.90
25918;DHT22;13899;51.174;4.456;2023-08-21T03:09:16;22.60;99.90
25918;DHT22;13899;51.174;4.456;2023-08-21T03:11:42;22.60;99.90
25918;DHT22;13899;51.174;4.456;2023-08-21T03:14:08;22.30;99.90
25918;DHT22;13899;51.174;4.456;2023-08-21T03:16:33;22.40;99.90
25918;DHT22;13899;51.174;4.456;2023-08-21T03:19:00;22.30;99.90
25918;DHT22;13899;51.174;4.456;2023-08-21T03:21:26;22.40;99.90
25918;DHT22;13899;51.174;4.456;2023-08-21T03:23:55;22.30;99.90
25918;DHT22;13899;51.174;4.456;2023-08-21T03:26:22;22.10;99.90
25918;DHT22;13899;51.174;4.456;2023-08-21T03:28:47;22.00;99.90
25918;DHT22;13899;51.174;4.456;2023-08-21T03:31:13;22.30;99.90
25918;DHT22;13899;51.174;4.456;2023-08-21T03:33:39;22.40;99.90
25918;DHT22;13899;51.174;4.456;2023-08-21T03:36:05;22.40;99.90
25918;DHT22;13899;51.174;4.456;2023-08-21T03:38:30;22.30;99.90
25918;DHT22;13899;51.174;4.456;2023-08-21T03:40:56;22.50;99.90
25918;DHT22;13899;51.174;4.456;2023-08-21T03:43:21;22.50;99.90
25918;DHT22;13899;51.174;4.456;2023-08-21T03:45:47;22.40;99.90
25918;DHT22;13899;51.174;4.456;2023-08-21T03:48:13;22.20;99.90
25918;DHT22;13899;51.174;4.456;2023-08-21T03:50:38;21.90;99.90
25918;DHT22;13899;51.174;4.456;2023-08-21T03:53:04;21.70;99.90
25918;DHT22;13899;51.174;4.456;2023-08-21T03:55:30;22.00;99.90
25918;DHT22;13899;51.174;4.456;2023-08-21T03:57:56;22.00;99.90
25918;DHT22;13899;51.174;4.456;2023-08-21T04:00:22;22.10;99.90
25918;DHT22;13899;51.174;4.456;2023-08-21T04:02:47;22.30;99.90
25918;DHT22;13899;51.174;4.456;2023-08-21T04:05:13;22.20;99.90
25918;DHT22;13899;51.174;4.456;2023-08-21T04:07:39;22.10;99.90
25918;DHT22;13899;51.174;4.456;2023-08-21T04:10:05;22.00;99.90
25918;DHT22;13899;51.174;4.456;2023-08-21T04:12:31;22.10;99.90
25918;DHT22;13899;51.174;4.456;2023-08-21T04:14:57;22.00;99.90
25918;DHT22;13899;51.174;4.456;2023-08-21T04:17:23;22.00;99.90
25918;DHT22;13899;51.174;4.456;2023-08-21T04:19:50;22.10;99.90
25918;DHT22;13899;51.174;4.456;2023-08-21T04:22:15;21.90;99.90
25918;DHT22;13899;51.174;4.456;2023-08-21T04:24:45;22.00;99.90
25918;DHT22;13899;51.174;4.456;2023-08-21T04:27:10;21.60;99.90
25918;DHT22;13899;51.174;4.456;2023-08-21T04:29:36;21.50;99.90
25918;DHT22;13899;51.174;4.456;2023-08-21T04:32:02;21.60;99.90
25918;DHT22;13899;51.174;4.456;2023-08-21T04:34:27;21.70;99.90
25918;DHT22;13899;51.174;4.456;2023-08-21T04:36:53;21.50;99.90
25918;DHT22;13899;51.174;4.456;2023-08-21T04:39:19;21.60;99.90
25918;DHT22;13899;51.174;4.456;2023-08-21T04:41:44;21.60;99.90
25918;DHT22;13899;51.174;4.456;2023-08-21T04:44:10;21.60;99.90
25918;DHT22;13899;51.174;4.456;2023-08-21T04:46:36;21.70;99.90
25918;DHT22;13899;51.174;4.456;2023-08-21T04:49:01;21.50;99.90
25918;DHT22;13899;51.174;4.456;2023-08-21T04:51:27;21.70;99.90
25918;DHT22;13899;51.174;4.456;2023-08-21T04:53:53;21.70;99.90
25918;DHT22;13899;51.174;4.456;2023-08-21T04:56:18;21.60;99.90
25918;DHT22;13899;51.174;4.456;2023-08-21T04:58:44;21.80;99.90
25918;DHT22;13899;51.174;4.456;2023-08-21T05:01:09;22.00;99.90
25918;DHT22;13899;51.174;4.456;2023-08-21T05:03:36;22.10;99.90
25918;DHT22;13899;51.174;4.456;2023-08-21T05:06:01;21.90;99.90
25918;DHT22;13899;51.174;4.456;2023-08-21T05:08:27;22.00;99.90
25918;DHT22;13899;51.174;4.456;2023-08-21T05:10:59;21.90;99.90
25918;DHT22;13899;51.174;4.456;2023-08-21T05:13:26;21.90;99.90
25918;DHT22;13899;51.174;4.456;2023-08-21T05:15:55;21.90;99.90
25918;DHT22;13899;51.174;4.456;2023-08-21T05:18:22;21.80;99.90
25918;DHT22;13899;51.174;4.456;2023-08-21T05:20:48;21.60;99.90
25918;DHT22;13899;51.174;4.456;2023-08-21T05:23:14;21.50;99.90
25918;DHT22;13899;51.174;4.456;2023-08-21T05:25:40;21.60;99.90
25918;DHT22;13899;51.174;4.456;2023-08-21T05:28:06;21.80;99.90
25918;DHT22;13899;51.174;4.456;2023-08-21T05:30:32;21.50;99.90
25918;DHT22;13899;51.174;4.456;2023-08-21T05:32:58;21.90;99.90
25918;DHT22;13899;51.174;4.456;2023-08-21T05:35:23;21.80;99.90
25918;DHT22;13899;51.174;4.456;2023-08-21T05:37:49;21.90;99.90
25918;DHT22;13899;51.174;4.456;2023-08-21T05:40:15;22.10;99.90
25918;DHT22;13899;51.174;4.456;2023-08-21T05:42:40;21.70;99.90
25918;DHT22;13899;51.174;4.456;2023-08-21T05:45:06;21.80;99.90
25918;DHT22;13899;51.174;4.456;2023-08-21T05:47:32;22.10;99.90
25918;DHT22;13899;51.174;4.456;2023-08-21T05:49:57;22.20;99.90
25918;DHT22;13899;51.174;4.456;2023-08-21T05:52:23;22.30;99.90
25918;DHT22;13899;51.174;4.456;2023-08-21T05:54:49;22.50;99.90
25918;DHT22;13899;51.174;4.456;2023-08-21T05:57:15;22.70;99.90
25918;DHT22;13899;51.174;4.456;2023-08-21T05:59:47;22.80;99.90
25918;DHT22;13899;51.174;4.456;2023-08-21T06:02:13;22.80;99.90
25918;DHT22;13899;51.174;4.456;2023-08-21T06:04:43;22.80;99.90
25918;DHT22;13899;51.174;4.456;2023-08-21T06:07:09;22.70;99.90
25918;DHT22;13899;51.174;4.456;2023-08-21T06:09:35;22.90;99.90
25918;DHT22;13899;51.174;4.456;2023-08-21T06:12:02;22.60;99.90
25918;DHT22;13899;51.174;4.456;2023-08-21T06:14:28;22.50;99.90
25918;DHT22;13899;51.174;4.456;2023-08-21T06:17:02;22.70;99.90
25918;DHT22;13899;51.174;4.456;2023-08-21T06:19:28;23.10;99.90
25918;DHT22;13899;51.174;4.456;2023-08-21T06:21:57;23.00;99.90
25918;DHT22;13899;51.174;4.456;2023-08-21T06:24:23;22.90;99.90
25918;DHT22;13899;51.174;4.456;2023-08-21T06:26:50;22.90;99.90
25918;DHT22;13899;51.174;4.456;2023-08-21T06:29:16;23.10;99.90
25918;DHT22;13899;51.174;4.456;2023-08-21T06:31:42;23.00;99.90
25918;DHT22;13899;51.174;4.456;2023-08-21T06:34:08;22.80;99.90
25918;DHT22;13899;51.174;4.456;2023-08-21T06:36:34;22.50;99.90
25918;DHT22;13899;51.174;4.456;2023-08-21T06:39:00;22.70;99.90
25918;DHT22;13899;51.174;4.456;2023-08-21T06:41:25;22.60;99.90
25918;DHT22;13899;51.174;4.456;2023-08-21T06:43:51;22.50;99.90
25918;DHT22;13899;51.174;4.456;2023-08-21T06:46:17;22.80;99.90
25918;DHT22;13899;51.174;4.456;2023-08-21T06:48:42;23.00;99.90
25918;DHT22;13899;51.174;4.456;2023-08-21T06:51:09;23.20;99.90
25918;DHT22;13899;51.174;4.456;2023-08-21T06:53:35;23.50;99.90
25918;DHT22;13899;51.174;4.456;2023-08-21T06:56:01;23.50;99.90
25918;DHT22;13899;51.174;4.456;2023-08-21T06:58:27;23.60;99.90
25918;DHT22;13899;51.174;4.456;2023-08-21T07:00:55;23.70;99.90
25918;DHT22;13899;51.174;4.456;2023-08-21T07:03:22;23.80;99.90
25918;DHT22;13899;51.174;4.456;2023-08-21T07:05:57;23.30;99.90
25918;DHT22;13899;51.174;4.456;2023-08-21T07:08:24;23.20;99.90
25918;DHT22;13899;51.174;4.456;2023-08-21T07:10:50;23.50;99.90
25918;DHT22;13899;51.174;4.456;2023-08-21T07:13:16;23.40;99.90
25918;DHT22;13899;51.174;4.456;2023-08-21T07:15:41;23.60;99.90
25918;DHT22;13899;51.174;4.456;2023-08-21T07:18:07;23.60;99.90
25918;DHT22;13899;51.174;4.456;2023-08-21T07:20:33;23.70;99.90
25918;DHT22;13899;51.174;4.456;2023-08-21T07:23:00;23.50;99.90
25918;DHT22;13899;51.174;4.456;2023-08-21T07:25:26;23.90;99.90
25918;DHT22;13899;51.174;4.456;2023-08-21T07:27:53;23.80;99.90
25918;DHT22;13899;51.174;4.456;2023-08-21T07:30:19;23.80;99.90
25918;DHT22;13899;51.174;4.456;2023-08-21T07:32:46;24.00;99.90
25918;DHT22;13899;51.174;4.456;2023-08-21T07:35:11;24.20;99.90
25918;DHT22;13899;51.174;4.456;2023-08-21T07:37:37;24.40;99.90
25918;DHT22;13899;51.174;4.456;2023-08-21T07:40:05;24.80;99.90
25918;DHT22;13899;51.174;4.456;2023-08-21T07:42:31;24.90;99.90
25918;DHT22;13899;51.174;4.456;2023-08-21T07:44:57;25.00;99.90
25918;DHT22;13899;51.174;4.456;2023-08-21T07:47:22;24.50;99.90
25918;DHT22;13899;51.174;4.456;2023-08-21T07:49:48;24.80;99.90
25918;DHT22;13899;51.174;4.456;2023-08-21T07:52:13;24.60;99.90
25918;DHT22;13899;51.174;4.456;2023-08-21T07:54:40;24.70;99.90
25918;DHT22;13899;51.174;4.456;2023-08-21T07:57:07;24.80;99.90
25918;DHT22;13899;51.174;4.456;2023-08-21T07:59:32;24.70;99.90
25918;DHT22;13899;51.174;4.456;2023-08-21T08:01:58;24.50;99.90
25918;DHT22;13899;51.174;4.456;2023-08-21T08:04:25;25.00;99.90
25918;DHT22;13899;51.174;4.456;2023-08-21T08:06:51;25.30;99.90
25918;DHT22;13899;51.174;4.456;2023-08-21T08:09:17;25.40;99.90
25918;DHT22;13899;51.174;4.456;2023-08-21T08:11:42;24.90;99.90
25918;DHT22;13899;51.174;4.456;2023-08-21T08:14:08;25.40;99.90
25918;DHT22;13899;51.174;4.456;2023-08-21T08:16:34;25.40;99.90
25918;DHT22;13899;51.174;4.456;2023-08-21T08:18:59;25.50;99.90
25918;DHT22;13899;51.174;4.456;2023-08-21T08:21:25;25.80;99.90
25918;DHT22;13899;51.174;4.456;2023-08-21T08:23:50;25.30;99.90
25918;DHT22;13899;51.174;4.456;2023-08-21T08:26:16;25.20;99.90
25918;DHT22;13899;51.174;4.456;2023-08-21T08:28:42;25.10;99.90
25918;DHT22;13899;51.174;4.456;2023-08-21T08:31:15;25.20;99.90
25918;DHT22;13899;51.174;4.456;2023-08-21T08:33:40;25.10;99.90
25918;DHT22;13899;51.174;4.456;2023-08-21T08:36:06;25.60;99.90
25918;DHT22;13899;51.174;4.456;2023-08-21T08:38:31;25.50;99.90
25918;DHT22;13899;51.174;4.456;2023-08-21T08:40:57;25.60;99.90
25918;DHT22;13899;51.174;4.456;2023-08-21T08:43:25;25.70;99.90
25918;DHT22;13899;51.174;4.456;2023-08-21T08:45:53;25.80;99.90
25918;DHT22;13899;51.174;4.456;2023-08-21T08:48:20;25.80;99.90
25918;DHT22;13899;51.174;4.456;2023-08-21T08:50:47;25.60;99.90
25918;DHT22;13899;51.174;4.456;2023-08-21T08:53:15;25.50;99.90
25918;DHT22;13899;51.174;4.456;2023-08-21T08:55:41;25.40;99.90
25918;DHT22;13899;51.174;4.456;2023-08-21T08:58:07;25.40;99.90
25918;DHT22;13899;51.174;4.456;2023-08-21T09:00:33;25.80;99.90
25918;DHT22;13899;51.174;4.456;2023-08-21T09:02:58;25.70;99.90
25918;DHT22;13899;51.174;4.456;2023-08-21T09:05:24;26.10;99.90
25918;DHT22;13899;51.174;4.456;2023-08-21T09:08:03;26.30;99.90
25918;DHT22;13899;51.174;4.456;2023-08-21T09:10:29;26.00;99.90
25918;DHT22;13899;51.174;4.456;2023-08-21T09:12:56;26.30;99.90
25918;DHT22;13899;51.174;4.456;2023-08-21T09:15:28;26.50;99.90
25918;DHT22;13899;51.174;4.456;2023-08-21T09:17:55;27.60;99.90
25918;DHT22;13899;51.174;4.456;2023-08-21T09:20:21;29.10;99.90
25918;DHT22;13899;51.174;4.456;2023-08-21T09:22:54;30.50;99.90
25918;DHT22;13899;51.174;4.456;2023-08-21T09:25:23;30.20;99.90
25918;DHT22;13899;51.174;4.456;2023-08-21T09:27:52;31.30;99.90
25918;DHT22;13899;51.174;4.456;2023-08-21T09:30:19;31.90;99.90
25918;DHT22;13899;51.174;4.456;2023-08-21T09:32:58;32.10;99.90
25918;DHT22;13899;51.174;4.456;2023-08-21T09:35:26;32.00;99.90
25918;DHT22;13899;51.174;4.456;2023-08-21T09:37:52;32.50;99.60
25918;DHT22;13899;51.174;4.456;2023-08-21T09:40:19;32.30;99.80
25918;DHT22;13899;51.174;4.456;2023-08-21T09:42:44;32.70;99.90
25918;DHT22;13899;51.174;4.456;2023-08-21T09:45:10;33.00;98.70
25918;DHT22;13899;51.174;4.456;2023-08-21T09:47:37;33.40;97.30
25918;DHT22;13899;51.174;4.456;2023-08-21T09:50:05;34.50;93.90
25918;DHT22;13899;51.174;4.456;2023-08-21T09:52:31;34.60;88.80
25918;DHT22;13899;51.174;4.456;2023-08-21T09:54:57;34.80;82.70
25918;DHT22;13899;51.174;4.456;2023-08-21T09:57:23;35.20;81.80
25918;DHT22;13899;51.174;4.456;2023-08-21T09:59:52;34.90;76.20
25918;DHT22;13899;51.174;4.456;2023-08-21T10:02:18;34.10;78.00
25918;DHT22;13899;51.174;4.456;2023-08-21T10:04:45;34.50;75.70
25918;DHT22;13899;51.174;4.456;2023-08-21T10:07:11;35.30;73.10
25918;DHT22;13899;51.174;4.456;2023-08-21T10:09:40;33.20;78.20
25918;DHT22;13899;51.174;4.456;2023-08-21T10:12:09;33.60;84.10
25918;DHT22;13899;51.174;4.456;2023-08-21T10:14:36;34.20;84.00
25918;DHT22;13899;51.174;4.456;2023-08-21T10:17:02;35.20;78.60
25918;DHT22;13899;51.174;4.456;2023-08-21T10:19:31;35.40;79.30
25918;DHT22;13899;51.174;4.456;2023-08-21T10:21:57;35.60;76.80
25918;DHT22;13899;51.174;4.456;2023-08-21T10:24:36;36.10;75.70
25918;DHT22;13899;51.174;4.456;2023-08-21T10:27:03;36.10;75.30
25918;DHT22;13899;51.174;4.456;2023-08-21T10:29:29;36.40;72.60
25918;DHT22;13899;51.174;4.456;2023-08-21T10:32:04;36.70;72.30
25918;DHT22;13899;51.174;4.456;2023-08-21T10:34:37;36.40;69.50
25918;DHT22;13899;51.174;4.456;2023-08-21T10:37:08;36.40;70.00
25918;DHT22;13899;51.174;4.456;2023-08-21T10:39:36;36.70;67.60
25918;DHT22;13899;51.174;4.456;2023-08-21T10:42:10;36.40;61.00
25918;DHT22;13899;51.174;4.456;2023-08-21T10:44:51;35.60;63.00
25918;DHT22;13899;51.174;4.456;2023-08-21T10:47:50;35.80;62.10
25918;DHT22;13899;51.174;4.456;2023-08-21T10:50:12;34.80;63.90
25918;DHT22;13899;51.174;4.456;2023-08-21T10:52:40;35.20;63.40
25918;DHT22;13899;51.174;4.456;2023-08-21T10:55:07;35.20;64.00
25918;DHT22;13899;51.174;4.456;2023-08-21T10:57:36;36.10;64.70
25918;DHT22;13899;51.174;4.456;2023-08-21T11:00:12;36.20;64.00
25918;DHT22;13899;51.174;4.456;2023-08-21T11:02:40;36.30;62.30
25918;DHT22;13899;51.174;4.456;2023-08-21T11:05:07;36.20;58.80
25918;DHT22;13899;51.174;4.456;2023-08-21T11:07:44;35.00;60.40
25918;DHT22;13899;51.174;4.456;2023-08-21T11:10:11;35.90;61.40
25918;DHT22;13899;51.174;4.456;2023-08-21T11:12:47;36.50;59.40
25918;DHT22;13899;51.174;4.456;2023-08-21T11:15:13;36.70;58.50
25918;DHT22;13899;51.174;4.456;2023-08-21T11:17:38;36.80;59.20
25918;DHT22;13899;51.174;4.456;2023-08-21T11:20:04;36.70;58.00
25918;DHT22;13899;51.174;4.456;2023-08-21T11:22:32;37.20;55.90
25918;DHT22;13899;51.174;4.456;2023-08-21T11:24:57;37.20;56.80
25918;DHT22;13899;51.174;4.456;2023-08-21T11:27:23;36.80;57.60
25918;DHT22;13899;51.174;4.456;2023-08-21T11:29:51;36.90;57.70
25918;DHT22;13899;51.174;4.456;2023-08-21T11:32:20;36.70;56.40
25918;DHT22;13899;51.174;4.456;2023-08-21T11:34:50;37.00;58.30
25918;DHT22;13899;51.174;4.456;2023-08-21T11:37:20;36.50;54.10
25918;DHT22;13899;51.174;4.456;2023-08-21T11:42:19;35.90;53.80
25918;DHT22;13899;51.174;4.456;2023-08-21T11:44:45;36.40;53.80
25918;DHT22;13899;51.174;4.456;2023-08-21T11:47:12;36.60;54.30
25918;DHT22;13899;51.174;4.456;2023-08-21T11:49:40;36.90;53.70
25918;DHT22;13899;51.174;4.456;2023-08-21T11:52:10;37.70;53.00
25918;DHT22;13899;51.174;4.456;2023-08-21T11:54:38;37.50;50.70
25918;DHT22;13899;51.174;4.456;2023-08-21T11:57:11;37.20;52.50
25918;DHT22;13899;51.174;4.456;2023-08-21T11:59:37;37.00;51.10
25918;DHT22;13899;51.174;4.456;2023-08-21T12:02:25;37.40;49.90
25918;DHT22;13899;51.174;4.456;2023-08-21T12:04:52;37.70;49.60
25918;DHT22;13899;51.174;4.456;2023-08-21T12:07:19;37.80;49.90
25918;DHT22;13899;51.174;4.456;2023-08-21T12:09:48;39.00;49.20
25918;DHT22;13899;51.174;4.456;2023-08-21T12:12:14;38.40;48.20
25918;DHT22;13899;51.174;4.456;2023-08-21T12:14:40;37.90;49.40
25918;DHT22;13899;51.174;4.456;2023-08-21T12:17:06;38.30;49.70
25918;DHT22;13899;51.174;4.456;2023-08-21T12:19:32;38.00;51.20
25918;DHT22;13899;51.174;4.456;2023-08-21T12:21:58;38.70;50.70
25918;DHT22;13899;51.174;4.456;2023-08-21T12:24:24;36.50;50.70
25918;DHT22;13899;51.174;4.456;2023-08-21T12:26:50;37.40;51.00
25918;DHT22;13899;51.174;4.456;2023-08-21T12:29:15;38.00;50.80
25918;DHT22;13899;51.174;4.456;2023-08-21T12:31:41;37.90;49.40
25918;DHT22;13899;51.174;4.456;2023-08-21T12:34:07;38.20;49.20
25918;DHT22;13899;51.174;4.456;2023-08-21T12:36:36;37.80;50.10
25918;DHT22;13899;51.174;4.456;2023-08-21T12:39:03;38.10;48.70
25918;DHT22;13899;51.174;4.456;2023-08-21T12:41:29;38.50;48.60
25918;DHT22;13899;51.174;4.456;2023-08-21T12:43:55;38.50;48.30
25918;DHT22;13899;51.174;4.456;2023-08-21T12:46:21;38.20;48.40
25918;DHT22;13899;51.174;4.456;2023-08-21T12:48:47;37.90;48.60
25918;DHT22;13899;51.174;4.456;2023-08-21T12:51:13;38.60;47.70
25918;DHT22;13899;51.174;4.456;2023-08-21T12:53:38;39.00;48.00
25918;DHT22;13899;51.174;4.456;2023-08-21T12:56:04;37.50;48.50
25918;DHT22;13899;51.174;4.456;2023-08-21T12:58:30;37.90;48.70
25918;DHT22;13899;51.174;4.456;2023-08-21T13:00:55;38.80;48.80
25918;DHT22;13899;51.174;4.456;2023-08-21T13:03:21;38.80;47.90
25918;DHT22;13899;51.174;4.456;2023-08-21T13:05:46;38.90;47.40
25918;DHT22;13899;51.174;4.456;2023-08-21T13:08:12;39.30;46.60
25918;DHT22;13899;51.174;4.456;2023-08-21T13:10:39;39.60;46.60
25918;DHT22;13899;51.174;4.456;2023-08-21T13:13:05;40.00;46.50
25918;DHT22;13899;51.174;4.456;2023-08-21T13:15:31;39.80;47.40
25918;DHT22;13899;51.174;4.456;2023-08-21T13:17:57;39.80;46.90
25918;DHT22;13899;51.174;4.456;2023-08-21T13:20:23;39.80;46.60
25918;DHT22;13899;51.174;4.456;2023-08-21T13:22:50;39.80;45.90
25918;DHT22;13899;51.174;4.456;2023-08-21T13:25:22;39.20;46.50
25918;DHT22;13899;51.174;4.456;2023-08-21T13:27:49;39.90;45.70
25918;DHT22;13899;51.174;4.456;2023-08-21T13:30:15;40.20;45.50
25918;DHT22;13899;51.174;4.456;2023-08-21T13:32:41;40.50;44.80
25918;DHT22;13899;51.174;4.456;2023-08-21T13:35:07;40.30;44.10
25918;DHT22;13899;51.174;4.456;2023-08-21T13:37:34;39.70;44.20
25918;DHT22;13899;51.174;4.456;2023-08-21T13:40:00;39.50;45.60
25918;DHT22;13899;51.174;4.456;2023-08-21T13:42:26;40.30;44.50
25918;DHT22;13899;51.174;4.456;2023-08-21T13:44:56;40.10;45.00
25918;DHT22;13899;51.174;4.456;2023-08-21T13:47:22;39.70;46.10
25918;DHT22;13899;51.174;4.456;2023-08-21T13:49:48;40.10;45.40
25918;DHT22;13899;51.174;4.456;2023-08-21T13:52:13;40.80;45.20
25918;DHT22;13899;51.174;4.456;2023-08-21T13:54:39;39.90;46.00
25918;DHT22;13899;51.174;4.456;2023-08-21T13:57:05;38.30;47.20
25918;DHT22;13899;51.174;4.456;2023-08-21T13:59:30;37.90;48.30
25918;DHT22;13899;51.174;4.456;2023-08-21T14:01:56;38.20;48.30
25918;DHT22;13899;51.174;4.456;2023-08-21T14:04:21;38.40;47.20
25918;DHT22;13899;51.174;4.456;2023-08-21T14:06:47;38.70;48.10
25918;DHT22;13899;51.174;4.456;2023-08-21T14:09:13;39.20;47.40
25918;DHT22;13899;51.174;4.456;2023-08-21T14:11:38;39.50;46.50
25918;DHT22;13899;51.174;4.456;2023-08-21T14:14:04;39.20;47.20
25918;DHT22;13899;51.174;4.456;2023-08-21T14:16:29;38.30;47.00
25918;DHT22;13899;51.174;4.456;2023-08-21T14:18:55;37.20;48.30
25918;DHT22;13899;51.174;4.456;2023-08-21T14:21:21;36.10;48.90
25918;DHT22;13899;51.174;4.456;2023-08-21T14:23:46;35.00;50.10
25918;DHT22;13899;51.174;4.456;2023-08-21T14:26:12;34.50;51.30
25918;DHT22;13899;51.174;4.456;2023-08-21T14:28:37;34.00;53.50
25918;DHT22;13899;51.174;4.456;2023-08-21T14:31:03;34.10;53.10
25918;DHT22;13899;51.174;4.456;2023-08-21T14:33:29;34.40;53.30
25918;DHT22;13899;51.174;4.456;2023-08-21T14:35:54;33.70;54.20
25918;DHT22;13899;51.174;4.456;2023-08-21T14:38:20;34.00;53.10
25918;DHT22;13899;51.174;4.456;2023-08-21T14:40:46;34.10;54.10
25918;DHT22;13899;51.174;4.456;2023-08-21T14:43:11;35.10;53.50
25918;DHT22;13899;51.174;4.456;2023-08-21T14:45:37;36.30;51.10
25918;DHT22;13899;51.174;4.456;2023-08-21T14:48:03;36.20;51.00
25918;DHT22;13899;51.174;4.456;2023-08-21T14:50:28;37.10;50.10
25918;DHT22;13899;51.174;4.456;2023-08-21T14:52:54;38.30;50.00
25918;DHT22;13899;51.174;4.456;2023-08-21T14:55:20;38.70;47.70
25918;DHT22;13899;51.174;4.456;2023-08-21T14:57:45;38.60;48.40
25918;DHT22;13899;51.174;4.456;2023-08-21T15:00:11;37.20;49.00
25918;DHT22;13899;51.174;4.456;2023-08-21T15:02:38;36.40;49.60
25918;DHT22;13899;51.174;4.456;2023-08-21T15:05:04;35.50;50.90
25918;DHT22;13899;51.174;4.456;2023-08-21T15:07:32;34.70;52.10
25918;DHT22;13899;51.174;4.456;2023-08-21T15:09:57;34.10;52.70
25918;DHT22;13899;51.174;4.456;2023-08-21T15:12:23;33.50;55.70
25918;DHT22;13899;51.174;4.456;2023-08-21T15:14:49;33.30;57.10
25918;DHT22;13899;51.174;4.456;2023-08-21T15:17:14;33.00;57.60
25918;DHT22;13899;51.174;4.456;2023-08-21T15:19:40;32.80;57.40
25918;DHT22;13899;51.174;4.456;2023-08-21T15:22:05;32.70;57.90
25918;DHT22;13899;51.174;4.456;2023-08-21T15:24:31;32.40;58.80
25918;DHT22;13899;51.174;4.456;2023-08-21T15:26:56;32.20;59.70
25918;DHT22;13899;51.174;4.456;2023-08-21T15:29:22;32.20;60.50